Glovis Chorus — D7OR — position and weather

sailwx.info

Track history (hours):
 
Tides and Currents Weather Stations Pressure Air Temp Water Temp Dewpoint Dewpoint Depression Visibility Wind Speed Wind Dir Waves Ship Positions

Glovis Chorus

Last reported at 2018-Apr-24 02:30 UTC. Time now 2018-Apr-24 02:33 UTC.
Position N 36°56' E 003°19'.

Length 200 m; draft 9 m.

Type: Cargo ship. MMSI: 440292000.

Date/timePositionNaut miles runAvg speedWind from/ knotsBaromVisibWave heightAir tempDewpointWater temp
2018-Apr-24 02:30N 36°56' E 003°19'815.3
2018-Apr-24 02:00N 36°55' E 003°09'815.5
2018-Apr-24 01:30N 36°54' E 002°60'815.8
2018-Apr-24 01:00N 36°53' E 002°50'815.5
2018-Apr-24 00:31N 36°52' E 002°40'815.7
2018-Apr-24 00:00N 36°51' E 002°30'815.8
2018-Apr-23 23:30N 36°50' E 002°21'815.8
2018-Apr-23 23:00N 36°49' E 002°11'815.7
2018-Apr-23 22:30N 36°48' E 002°01'1415.4
2018-Apr-23 21:35N 36°46' E 001°44'114.9
2018-Apr-23 21:31N 36°45' E 001°42'814.9
2018-Apr-23 21:00N 36°44' E 001°33'714.7
2018-Apr-23 20:31N 36°43' E 001°24'815.1
2018-Apr-23 20:00N 36°42' E 001°15'714.8
2018-Apr-23 19:31N 36°41' E 001°06'1014.1
2018-Apr-23 18:46N 36°39' E 000°53'413.8
2018-Apr-23 18:30N 36°39' E 000°48'713.6
2018-Apr-23 18:00N 36°38' E 000°40'713.6
2018-Apr-23 17:30N 36°38' E 000°32'713.1
2018-Apr-23 17:00N 36°36' E 000°24'713.8
2018-Apr-23 16:30N 36°36' E 000°15'713.9
2018-Apr-23 16:00N 36°35' E 000°06'26015.6
2018-Apr-22 23:21N 35°58' W 005°13'618.3
2018-Apr-22 23:01N 35°58' W 005°21'24114.7
2018-Apr-22 06:36N 37°44' W 009°51'2616.7
2018-Apr-22 05:01N 38°09' W 009°59'116.6
2018-Apr-22 04:58N 38°10' W 009°59'816.6
2018-Apr-22 04:30N 38°18' W 010°02'917.0
2018-Apr-22 03:59N 38°26' W 010°04'816.8
2018-Apr-22 03:31N 38°34' W 010°06'816.6
2018-Apr-22 03:00N 38°42' W 010°08'816.9
2018-Apr-22 02:30N 38°51' W 010°07'816.5
2018-Apr-22 02:01N 38°59' W 010°06'816.7
2018-Apr-22 01:30N 39°07' W 010°05'816.6
2018-Apr-22 01:00N 39°16' W 010°04'816.3
2018-Apr-22 00:31N 39°24' W 010°04'816.6
2018-Apr-22 00:00N 39°32' W 010°05'816.6
2018-Apr-21 23:30N 39°40' W 010°05'816.4
2018-Apr-21 23:00N 39°49' W 010°06'61215.6
2018-Apr-20 07:49N 49°16' W 004°45'414.1
2018-Apr-20 07:30N 49°18' W 004°39'714.1
2018-Apr-20 07:00N 49°22' W 004°29'714.1
2018-Apr-20 06:30N 49°25' W 004°20'914.9
2018-Apr-20 05:55N 49°30' W 004°08'615.4
2018-Apr-20 05:30N 49°33' W 003°60'816.0
2018-Apr-20 05:00N 49°36' W 003°49'816.9
2018-Apr-20 04:30N 49°40' W 003°37'917.8
2018-Apr-20 04:00N 49°45' W 003°25'918.5
2018-Apr-20 03:30N 49°50' W 003°13'918.6
2018-Apr-20 03:00N 49°54' W 003°01'1018.4
2018-Apr-20 02:29N 49°59' W 002°48'917.8
2018-Apr-20 02:01N 50°03' W 002°36'917.0
2018-Apr-20 01:30N 50°07' W 002°25'816.1
2018-Apr-20 01:00N 50°11' W 002°14'815.2
2018-Apr-20 00:31N 50°14' W 002°03'714.3
2018-Apr-20 00:01N 50°17' W 001°53'713.7
2018-Apr-19 23:30N 50°20' W 001°43'713.4
2018-Apr-19 23:00N 50°23' W 001°34'713.3
2018-Apr-19 22:30N 50°26' W 001°24'713.1
2018-Apr-19 22:00N 50°30' W 001°15'712.8
2018-Apr-19 21:30N 50°33' W 001°07'713.3
2018-Apr-19 21:00N 50°38' W 000°60'5 9.5
2018-Apr-19 20:30N 50°43' W 000°59'815.6
2018-Apr-19 20:00N 50°46' W 001°11'510.6
2018-Apr-19 19:30N 50°49' W 001°18'5 9.7
2018-Apr-19 19:00N 50°52' W 001°23'1 2.8
2018-Apr-19 18:30N 50°53' W 001°24'0 0.0
2018-Apr-19 17:59N 50°53' W 001°24'0 0.0
2018-Apr-19 17:29N 50°53' W 001°24'0 0.0
2018-Apr-19 16:59N 50°53' W 001°24'0 0.0
2018-Apr-19 16:29N 50°53' W 001°24'0 0.0
2018-Apr-19 15:59N 50°53' W 001°24'0 0.0
2018-Apr-19 15:26N 50°53' W 001°24'0 0.0
2018-Apr-19 14:59N 50°53' W 001°24'0 0.0
2018-Apr-19 14:29N 50°53' W 001°24'0 0.0
2018-Apr-19 13:58N 50°53' W 001°24'0 0.0
2018-Apr-19 13:28N 50°53' W 001°24'0 0.0
2018-Apr-19 12:58N 50°53' W 001°24'0 0.0
2018-Apr-19 12:25N 50°53' W 001°24'0 0.0
2018-Apr-19 11:55N 50°53' W 001°24'0 0.0
2018-Apr-19 11:28N 50°53' W 001°24'0 0.0
2018-Apr-19 10:58N 50°53' W 001°24'0 0.0
2018-Apr-19 10:28N 50°53' W 001°24'0 0.0
2018-Apr-19 09:55N 50°53' W 001°24'0 0.0
2018-Apr-19 09:25N 50°53' W 001°24'0 0.0
2018-Apr-19 08:55N 50°53' W 001°24'0 0.0
2018-Apr-19 08:28N 50°53' W 001°24'0 0.0
2018-Apr-19 07:58N 50°53' W 001°24'0 0.0
2018-Apr-19 07:28N 50°53' W 001°24'0 0.0
2018-Apr-19 06:58N 50°53' W 001°24'0 0.6
2018-Apr-19 06:30N 50°53' W 001°24'3 7.0
2018-Apr-19 06:01N 50°51' W 001°20'3 6.6
2018-Apr-19 05:31N 50°48' W 001°18'510.5
2018-Apr-19 05:00N 50°46' W 001°11'713.1
2018-Apr-19 04:30N 50°43' W 001°01'611.1
2018-Apr-19 04:00N 50°39' W 000°55'4 7.7
2018-Apr-19 03:30N 50°37' W 000°50'612.2
2018-Apr-19 03:00N 50°34' W 000°42'612.4
2018-Apr-19 02:30N 50°33' W 000°32'5 9.1
2018-Apr-19 02:00N 50°33' W 000°25'714.4
2018-Apr-19 01:31N 50°32' W 000°14'816.6
2018-Apr-19 01:00N 50°32' W 000°01'816.0
2018-Apr-19 00:30N 50°34' E 000°12'815.4
2018-Apr-19 00:00N 50°36' E 000°23'815.0
2018-Apr-18 23:30N 50°38' E 000°35'815.0
2018-Apr-18 23:00N 50°41' E 000°45'815.6
2018-Apr-18 22:31N 50°45' E 000°56'816.4
2018-Apr-18 22:00N 50°50' E 001°06'1018.4
2018-Apr-18 21:29N 50°55' E 001°19'1020.3
2018-Apr-18 21:00N 51°03' E 001°29'1020.9
2018-Apr-18 20:31N 51°10' E 001°41'1019.5
2018-Apr-18 20:00N 51°18' E 001°50'918.3
2018-Apr-18 19:31N 51°27' E 001°56'917.5
2018-Apr-18 19:01N 51°33' E 002°04'917.1
2018-Apr-18 18:31N 51°40' E 002°13'816.6
2018-Apr-18 18:00N 51°46' E 002°22'816.1
2018-Apr-18 17:30N 51°52' E 002°31'3115.5
2018-Apr-18 15:32N 52°15' E 003°04'215.2
2018-Apr-18 15:26N 52°16' E 003°06'715.4
2018-Apr-18 15:00N 52°22' E 003°11'815.8
2018-Apr-18 14:30N 52°28' E 003°18'816.5
2018-Apr-18 14:00N 52°35' E 003°26'917.1
2018-Apr-18 13:30N 52°42' E 003°35'1117.6
2018-Apr-18 12:54N 52°50' E 003°47'817.8
2018-Apr-18 12:27N 52°55' E 003°56'817.8
2018-Apr-18 12:00N 53°01' E 004°06'917.7
2018-Apr-18 11:30N 53°07' E 004°16'1417.3
2018-Apr-18 10:41N 53°19' E 004°30'317.2
2018-Apr-18 10:30N 53°21' E 004°32'816.6
2018-Apr-18 10:00N 53°28' E 004°40'816.2
2018-Apr-18 09:31N 53°31' E 004°52'815.9
2018-Apr-18 09:01N 53°34' E 005°05'815.3
2018-Apr-18 08:30N 53°37' E 005°17'815.0
2018-Apr-18 08:00N 53°40' E 005°29'715.0
2018-Apr-18 07:30N 53°42' E 005°41'6216.8
2018-Apr-18 03:51N 53°58' E 007°22'1514.7
2018-Apr-18 02:50N 53°53' E 007°46'514.9
2018-Apr-18 02:31N 53°52' E 007°54'816.4
2018-Apr-18 02:00N 53°49' E 008°07'816.5
2018-Apr-18 01:30N 53°43' E 008°17'715.0
2018-Apr-18 01:00N 53°38' E 008°26'611.2
2018-Apr-18 00:30N 53°34' E 008°32'0 0.8
2018-Apr-18 00:00N 53°34' E 008°33'0 0.5
2018-Apr-17 23:30N 53°34' E 008°33'0 0.3
2018-Apr-17 22:58N 53°35' E 008°33'0 0.0
2018-Apr-17 22:28N 53°35' E 008°33'0 0.0
2018-Apr-17 21:58N 53°35' E 008°33'0 0.0
2018-Apr-17 21:28N 53°35' E 008°33'0 0.0
2018-Apr-17 20:58N 53°35' E 008°33'0 0.0
2018-Apr-17 20:28N 53°35' E 008°33'0 0.0
2018-Apr-17 19:58N 53°35' E 008°33'0 0.0
2018-Apr-17 19:28N 53°35' E 008°33'0 0.0
2018-Apr-17 18:58N 53°35' E 008°33'0 0.0
2018-Apr-17 18:28N 53°35' E 008°33'0 0.0
2018-Apr-17 17:58N 53°35' E 008°33'0 0.0
2018-Apr-17 17:28N 53°35' E 008°33'0 0.0
2018-Apr-17 16:58N 53°35' E 008°33'0 0.0
2018-Apr-17 16:28N 53°35' E 008°33'0 0.0
2018-Apr-17 15:58N 53°35' E 008°33'0 0.0
2018-Apr-17 15:28N 53°35' E 008°33'0 0.0
2018-Apr-17 14:58N 53°35' E 008°33'0 0.0
2018-Apr-17 14:25N 53°35' E 008°33'0 0.0
2018-Apr-17 13:58N 53°35' E 008°33'0 0.0
2018-Apr-17 13:28N 53°35' E 008°33'0 0.0
2018-Apr-17 12:58N 53°35' E 008°33'0 0.0
2018-Apr-17 12:28N 53°35' E 008°33'0 0.0
2018-Apr-17 11:58N 53°35' E 008°33'0 0.0
2018-Apr-17 11:28N 53°35' E 008°33'0 0.0
2018-Apr-17 10:58N 53°35' E 008°33'0 0.0
2018-Apr-17 10:28N 53°35' E 008°33'0 0.0
2018-Apr-17 09:58N 53°35' E 008°33'0 0.0
2018-Apr-17 09:28N 53°35' E 008°33'0 0.0
2018-Apr-17 08:58N 53°35' E 008°33'0 0.0
2018-Apr-17 08:28N 53°35' E 008°33'0 0.0
2018-Apr-17 07:58N 53°35' E 008°33'0 0.0
2018-Apr-17 07:28N 53°35' E 008°33'0 0.0
2018-Apr-17 06:58N 53°35' E 008°33'0 0.0
2018-Apr-17 06:28N 53°35' E 008°33'0 0.0
2018-Apr-17 05:58N 53°35' E 008°33'0 0.0
2018-Apr-17 05:28N 53°35' E 008°33'0 0.0
2018-Apr-17 04:58N 53°35' E 008°33'0 0.0
2018-Apr-17 04:28N 53°35' E 008°33'0 0.0
2018-Apr-17 03:58N 53°35' E 008°33'0 0.0
2018-Apr-17 03:28N 53°35' E 008°33'0 0.0
2018-Apr-17 02:58N 53°35' E 008°33'0 0.0
2018-Apr-17 02:28N 53°35' E 008°33'0 0.0
2018-Apr-17 01:58N 53°35' E 008°33'0 0.0
2018-Apr-17 01:28N 53°35' E 008°33'0 0.0
2018-Apr-17 00:58N 53°35' E 008°33'0 0.0
2018-Apr-17 00:28N 53°35' E 008°33'0 0.0
2018-Apr-16 23:58N 53°35' E 008°33'0 0.0
2018-Apr-16 23:31N 53°35' E 008°33'0 0.0
2018-Apr-16 23:01N 53°35' E 008°33'0 0.0
2018-Apr-16 22:31N 53°35' E 008°33'0 0.0
2018-Apr-16 22:00N 53°35' E 008°33'0 0.0
2018-Apr-16 21:30N 53°35' E 008°33'0 0.0
2018-Apr-16 21:00N 53°35' E 008°33'0 0.0
2018-Apr-16 20:30N 53°35' E 008°33'0 0.0
2018-Apr-16 20:00N 53°35' E 008°33'0 0.0
2018-Apr-16 19:30N 53°35' E 008°33'0 0.0
2018-Apr-16 19:00N 53°35' E 008°33'0 0.0
2018-Apr-16 18:30N 53°35' E 008°33'0 0.0
2018-Apr-16 18:00N 53°35' E 008°33'0 0.0
2018-Apr-16 17:30N 53°35' E 008°33'0 0.0
2018-Apr-16 17:00N 53°35' E 008°33'0 0.0
2018-Apr-16 16:30N 53°35' E 008°33'0 0.0
2018-Apr-16 16:00N 53°35' E 008°33'0 0.3
2018-Apr-16 15:30N 53°34' E 008°33'0 0.5
2018-Apr-16 15:00N 53°34' E 008°33'0 0.5
2018-Apr-16 14:30N 53°34' E 008°33'3 5.5
2018-Apr-16 14:00N 53°36' E 008°30'713.1
2018-Apr-16 13:30N 53°41' E 008°22'510.9
2018-Apr-16 13:00N 53°44' E 008°14'510.6
2018-Apr-16 12:30N 53°48' E 008°08'612.1
2018-Apr-16 12:00N 53°51' E 007°60'610.6
2018-Apr-16 11:27N 53°53' E 007°50'2 4.5
2018-Apr-16 11:00N 53°54' E 007°49'0 0.3
2018-Apr-16 10:30N 53°55' E 007°49'0 0.0
2018-Apr-16 10:00N 53°55' E 007°49'0 0.1
2018-Apr-16 09:15N 53°55' E 007°49'0 0.2
2018-Apr-16 09:00N 53°55' E 007°49'0 0.0
2018-Apr-16 08:21N 53°55' E 007°49'0 0.0
2018-Apr-16 07:57N 53°55' E 007°49'0 0.0
2018-Apr-16 07:27N 53°55' E 007°49'0 0.0
2018-Apr-16 06:57N 53°55' E 007°49'0 0.1
2018-Apr-16 05:18N 53°55' E 007°49'0 0.0
2018-Apr-16 05:00N 53°55' E 007°49'0 0.0
2018-Apr-16 04:30N 53°55' E 007°49'0 0.0
2018-Apr-16 04:00N 53°55' E 007°49'0 0.0
2018-Apr-16 03:27N 53°55' E 007°49'0 0.0
2018-Apr-16 03:00N 53°55' E 007°49'0 0.0
2018-Apr-16 02:27N 53°55' E 007°49'0 0.0
2018-Apr-16 01:57N 53°55' E 007°49'0 0.0
2018-Apr-16 01:30N 53°55' E 007°49'0 0.0
2018-Apr-16 00:45N 53°55' E 007°49'0 0.1
2018-Apr-16 00:27N 53°55' E 007°49'0 0.0
2018-Apr-15 23:45N 53°55' E 007°49'0 0.1
2018-Apr-15 23:27N 53°55' E 007°49'0 0.0
2018-Apr-15 23:00N 53°55' E 007°49'0 0.2
2018-Apr-15 22:30N 53°55' E 007°49'0 0.1
2018-Apr-15 21:57N 53°55' E 007°49'0 0.0
2018-Apr-15 21:30N 53°55' E 007°49'0 0.0
2018-Apr-15 21:00N 53°55' E 007°49'0 0.0
2018-Apr-15 20:24N 53°55' E 007°49'0 0.0
2018-Apr-15 20:00N 53°55' E 007°49'0 0.1
2018-Apr-15 19:15N 53°55' E 007°49'0 0.1
2018-Apr-15 18:51N 53°55' E 007°49'0 0.2
2018-Apr-15 18:30N 53°55' E 007°49'0 0.1
2018-Apr-15 18:00N 53°55' E 007°49'4 7.0
2018-Apr-15 17:28N 53°54' E 007°42'8215.7
2018-Apr-15 12:15N 53°35' E 005°28'615.5
2018-Apr-15 11:51N 53°33' E 005°18'515.6
2018-Apr-15 11:30N 53°31' E 005°10'815.8
2018-Apr-15 11:00N 53°29' E 004°57'816.0
2018-Apr-15 10:30N 53°25' E 004°45'1215.2
2018-Apr-15 09:42N 53°15' E 004°34'416.2
2018-Apr-15 09:28N 53°11' E 004°32'816.2
2018-Apr-15 09:00N 53°04' E 004°26'816.2
2018-Apr-15 08:30N 52°57' E 004°20'816.0
2018-Apr-15 08:00N 52°50' E 004°14'816.1
2018-Apr-15 07:31N 52°44' E 004°05'1316.3
2018-Apr-15 06:44N 52°35' E 003°51'1016.4
2018-Apr-15 06:07N 52°27' E 003°40'216.4
2018-Apr-15 05:59N 52°26' E 003°38'4517.5
2018-Apr-15 03:24N 51°53' E 002°46'718.3
2018-Apr-15 03:00N 51°48' E 002°38'918.4
2018-Apr-15 02:30N 51°41' E 002°29'1018.8
2018-Apr-15 01:58N 51°33' E 002°18'918.8
2018-Apr-15 01:30N 51°27' E 002°09'918.1
2018-Apr-15 01:00N 51°18' E 002°06'917.1
2018-Apr-15 00:30N 51°11' E 001°57'1019.5
2018-Apr-15 00:00N 51°06' E 001°45'1020.5
2018-Apr-14 23:30N 50°58' E 001°33'1120.0
2018-Apr-14 22:57N 50°49' E 001°25'2418.4
2018-Apr-14 21:38N 50°30' E 001°01'218.4
2018-Apr-14 21:30N 50°29' E 000°57'1018.8
2018-Apr-14 20:59N 50°27' E 000°42'919.1
2018-Apr-14 20:29N 50°25' E 000°27'1019.5
2018-Apr-14 20:00N 50°23' E 000°13'1019.7
2018-Apr-14 19:30N 50°20' W 000°01'1019.6
2018-Apr-14 19:01N 50°17' W 000°16'1019.7
2018-Apr-14 18:30N 50°14' W 000°31'1019.6
2018-Apr-14 18:00N 50°12' W 000°46'1019.3
2018-Apr-14 17:29N 50°11' W 001°01'917.8
2018-Apr-14 17:00N 50°12' W 001°14'917.3
2018-Apr-14 16:31N 50°18' W 001°23'816.4
2018-Apr-14 16:00N 50°23' W 001°34'816.8
2018-Apr-14 15:30N 50°23' W 001°47'916.2
2018-Apr-14 14:57N 50°23' W 002°02'915.5
2018-Apr-14 14:23N 50°23' W 002°16'1215.1
2018-Apr-14 13:35N 50°23' W 002°34'115.1
2018-Apr-14 13:30N 50°23' W 002°36'815.4
2018-Apr-14 13:00N 50°23' W 002°48'815.9
2018-Apr-14 12:30N 50°23' W 003°01'816.4
2018-Apr-14 12:00N 50°25' W 003°14'815.5
2018-Apr-14 11:30N 50°25' W 003°25'3 5.8
2018-Apr-14 11:00N 50°23' W 003°25'714.7
2018-Apr-14 10:30N 50°16' W 003°29'815.4
2018-Apr-14 10:00N 50°10' W 003°37'1616.1
2018-Apr-14 09:00N 49°58' W 003°55'1216.5
2018-Apr-14 08:17N 49°50' W 004°07'716.8
2018-Apr-14 07:50N 49°44' W 004°15'817.4
2018-Apr-14 07:24N 49°38' W 004°23'4017.5
2018-Apr-14 05:07N 49°08' W 005°03'218.1
2018-Apr-14 04:59N 49°06' W 005°05'1018.2
2018-Apr-14 04:25N 48°59' W 005°16'818.6
2018-Apr-14 04:00N 48°53' W 005°24'918.7
2018-Apr-14 03:30N 48°46' W 005°33'  
Track history (hours):
 
Tides and Currents Weather Stations Pressure Air Temp Water Temp Dewpoint Dewpoint Depression Visibility Wind Speed Wind Dir Waves Ship Positions

Glovis Chorus

Last reported at 2018-Apr-24 02:30 UTC. Time now 2018-Apr-24 02:33 UTC.
Position N 36°56' E 003°19'.

Length 200 m; draft 9 m.

Type: Cargo ship. MMSI: 440292000.

Date/timePositionNaut miles runAvg speedWind from/ knotsBaromVisibWave heightAir tempDewpointWater temp
2018-Apr-24 02:30N 36°56' E 003°19'815.3
2018-Apr-24 02:00N 36°55' E 003°09'815.5
2018-Apr-24 01:30N 36°54' E 002°60'815.8
2018-Apr-24 01:00N 36°53' E 002°50'815.5
2018-Apr-24 00:31N 36°52' E 002°40'815.7
2018-Apr-24 00:00N 36°51' E 002°30'815.8
2018-Apr-23 23:30N 36°50' E 002°21'815.8
2018-Apr-23 23:00N 36°49' E 002°11'815.7
2018-Apr-23 22:30N 36°48' E 002°01'1415.4
2018-Apr-23 21:35N 36°46' E 001°44'114.9
2018-Apr-23 21:31N 36°45' E 001°42'814.9
2018-Apr-23 21:00N 36°44' E 001°33'714.7
2018-Apr-23 20:31N 36°43' E 001°24'815.1
2018-Apr-23 20:00N 36°42' E 001°15'714.8
2018-Apr-23 19:31N 36°41' E 001°06'1014.1
2018-Apr-23 18:46N 36°39' E 000°53'413.8
2018-Apr-23 18:30N 36°39' E 000°48'713.6
2018-Apr-23 18:00N 36°38' E 000°40'713.6
2018-Apr-23 17:30N 36°38' E 000°32'713.1
2018-Apr-23 17:00N 36°36' E 000°24'713.8
2018-Apr-23 16:30N 36°36' E 000°15'713.9
2018-Apr-23 16:00N 36°35' E 000°06'26015.6
2018-Apr-22 23:21N 35°58' W 005°13'618.3
2018-Apr-22 23:01N 35°58' W 005°21'24114.7
2018-Apr-22 06:36N 37°44' W 009°51'2616.7
2018-Apr-22 05:01N 38°09' W 009°59'116.6
2018-Apr-22 04:58N 38°10' W 009°59'816.6
2018-Apr-22 04:30N 38°18' W 010°02'917.0
2018-Apr-22 03:59N 38°26' W 010°04'816.8
2018-Apr-22 03:31N 38°34' W 010°06'816.6
2018-Apr-22 03:00N 38°42' W 010°08'816.9
2018-Apr-22 02:30N 38°51' W 010°07'816.5
2018-Apr-22 02:01N 38°59' W 010°06'816.7
2018-Apr-22 01:30N 39°07' W 010°05'816.6
2018-Apr-22 01:00N 39°16' W 010°04'816.3
2018-Apr-22 00:31N 39°24' W 010°04'816.6
2018-Apr-22 00:00N 39°32' W 010°05'816.6
2018-Apr-21 23:30N 39°40' W 010°05'816.4
2018-Apr-21 23:00N 39°49' W 010°06'61215.6
2018-Apr-20 07:49N 49°16' W 004°45'414.1
2018-Apr-20 07:30N 49°18' W 004°39'714.1
2018-Apr-20 07:00N 49°22' W 004°29'714.1
2018-Apr-20 06:30N 49°25' W 004°20'914.9
2018-Apr-20 05:55N 49°30' W 004°08'615.4
2018-Apr-20 05:30N 49°33' W 003°60'816.0
2018-Apr-20 05:00N 49°36' W 003°49'816.9
2018-Apr-20 04:30N 49°40' W 003°37'917.8
2018-Apr-20 04:00N 49°45' W 003°25'918.5
2018-Apr-20 03:30N 49°50' W 003°13'918.6
2018-Apr-20 03:00N 49°54' W 003°01'1018.4
2018-Apr-20 02:29N 49°59' W 002°48'917.8
2018-Apr-20 02:01N 50°03' W 002°36'917.0
2018-Apr-20 01:30N 50°07' W 002°25'816.1
2018-Apr-20 01:00N 50°11' W 002°14'815.2
2018-Apr-20 00:31N 50°14' W 002°03'714.3
2018-Apr-20 00:01N 50°17' W 001°53'713.7
2018-Apr-19 23:30N 50°20' W 001°43'713.4
2018-Apr-19 23:00N 50°23' W 001°34'713.3
2018-Apr-19 22:30N 50°26' W 001°24'713.1
2018-Apr-19 22:00N 50°30' W 001°15'712.8
2018-Apr-19 21:30N 50°33' W 001°07'713.3
2018-Apr-19 21:00N 50°38' W 000°60'5 9.5
2018-Apr-19 20:30N 50°43' W 000°59'815.6
2018-Apr-19 20:00N 50°46' W 001°11'510.6
2018-Apr-19 19:30N 50°49' W 001°18'5 9.7
2018-Apr-19 19:00N 50°52' W 001°23'1 2.8
2018-Apr-19 18:30N 50°53' W 001°24'0 0.0
2018-Apr-19 17:59N 50°53' W 001°24'0 0.0
2018-Apr-19 17:29N 50°53' W 001°24'0 0.0
2018-Apr-19 16:59N 50°53' W 001°24'0 0.0
2018-Apr-19 16:29N 50°53' W 001°24'0 0.0
2018-Apr-19 15:59N 50°53' W 001°24'0 0.0
2018-Apr-19 15:26N 50°53' W 001°24'0 0.0
2018-Apr-19 14:59N 50°53' W 001°24'0 0.0
2018-Apr-19 14:29N 50°53' W 001°24'0 0.0
2018-Apr-19 13:58N 50°53' W 001°24'0 0.0
2018-Apr-19 13:28N 50°53' W 001°24'0 0.0
2018-Apr-19 12:58N 50°53' W 001°24'0 0.0
2018-Apr-19 12:25N 50°53' W 001°24'0 0.0
2018-Apr-19 11:55N 50°53' W 001°24'0 0.0
2018-Apr-19 11:28N 50°53' W 001°24'0 0.0
2018-Apr-19 10:58N 50°53' W 001°24'0 0.0
2018-Apr-19 10:28N 50°53' W 001°24'0 0.0
2018-Apr-19 09:55N 50°53' W 001°24'0 0.0
2018-Apr-19 09:25N 50°53' W 001°24'0 0.0
2018-Apr-19 08:55N 50°53' W 001°24'0 0.0
2018-Apr-19 08:28N 50°53' W 001°24'0 0.0
2018-Apr-19 07:58N 50°53' W 001°24'0 0.0
2018-Apr-19 07:28N 50°53' W 001°24'0 0.0
2018-Apr-19 06:58N 50°53' W 001°24'0 0.6
2018-Apr-19 06:30N 50°53' W 001°24'3 7.0
2018-Apr-19 06:01N 50°51' W 001°20'3 6.6
2018-Apr-19 05:31N 50°48' W 001°18'510.5
2018-Apr-19 05:00N 50°46' W 001°11'713.1
2018-Apr-19 04:30N 50°43' W 001°01'611.1
2018-Apr-19 04:00N 50°39' W 000°55'4 7.7
2018-Apr-19 03:30N 50°37' W 000°50'612.2
2018-Apr-19 03:00N 50°34' W 000°42'612.4
2018-Apr-19 02:30N 50°33' W 000°32'5 9.1
2018-Apr-19 02:00N 50°33' W 000°25'714.4
2018-Apr-19 01:31N 50°32' W 000°14'816.6
2018-Apr-19 01:00N 50°32' W 000°01'816.0
2018-Apr-19 00:30N 50°34' E 000°12'815.4
2018-Apr-19 00:00N 50°36' E 000°23'815.0
2018-Apr-18 23:30N 50°38' E 000°35'815.0
2018-Apr-18 23:00N 50°41' E 000°45'815.6
2018-Apr-18 22:31N 50°45' E 000°56'816.4
2018-Apr-18 22:00N 50°50' E 001°06'1018.4
2018-Apr-18 21:29N 50°55' E 001°19'1020.3
2018-Apr-18 21:00N 51°03' E 001°29'1020.9
2018-Apr-18 20:31N 51°10' E 001°41'1019.5
2018-Apr-18 20:00N 51°18' E 001°50'918.3
2018-Apr-18 19:31N 51°27' E 001°56'917.5
2018-Apr-18 19:01N 51°33' E 002°04'917.1
2018-Apr-18 18:31N 51°40' E 002°13'816.6
2018-Apr-18 18:00N 51°46' E 002°22'816.1
2018-Apr-18 17:30N 51°52' E 002°31'3115.5
2018-Apr-18 15:32N 52°15' E 003°04'215.2
2018-Apr-18 15:26N 52°16' E 003°06'715.4
2018-Apr-18 15:00N 52°22' E 003°11'815.8
2018-Apr-18 14:30N 52°28' E 003°18'816.5
2018-Apr-18 14:00N 52°35' E 003°26'917.1
2018-Apr-18 13:30N 52°42' E 003°35'1117.6
2018-Apr-18 12:54N 52°50' E 003°47'817.8
2018-Apr-18 12:27N 52°55' E 003°56'817.8
2018-Apr-18 12:00N 53°01' E 004°06'917.7
2018-Apr-18 11:30N 53°07' E 004°16'1417.3
2018-Apr-18 10:41N 53°19' E 004°30'317.2
2018-Apr-18 10:30N 53°21' E 004°32'816.6
2018-Apr-18 10:00N 53°28' E 004°40'816.2
2018-Apr-18 09:31N 53°31' E 004°52'815.9
2018-Apr-18 09:01N 53°34' E 005°05'815.3
2018-Apr-18 08:30N 53°37' E 005°17'815.0
2018-Apr-18 08:00N 53°40' E 005°29'715.0
2018-Apr-18 07:30N 53°42' E 005°41'6216.8
2018-Apr-18 03:51N 53°58' E 007°22'1514.7
2018-Apr-18 02:50N 53°53' E 007°46'514.9
2018-Apr-18 02:31N 53°52' E 007°54'816.4
2018-Apr-18 02:00N 53°49' E 008°07'816.5
2018-Apr-18 01:30N 53°43' E 008°17'715.0
2018-Apr-18 01:00N 53°38' E 008°26'611.2
2018-Apr-18 00:30N 53°34' E 008°32'0 0.8
2018-Apr-18 00:00N 53°34' E 008°33'0 0.5
2018-Apr-17 23:30N 53°34' E 008°33'0 0.3
2018-Apr-17 22:58N 53°35' E 008°33'0 0.0
2018-Apr-17 22:28N 53°35' E 008°33'0 0.0
2018-Apr-17 21:58N 53°35' E 008°33'0 0.0
2018-Apr-17 21:28N 53°35' E 008°33'0 0.0
2018-Apr-17 20:58N 53°35' E 008°33'0 0.0
2018-Apr-17 20:28N 53°35' E 008°33'0 0.0
2018-Apr-17 19:58N 53°35' E 008°33'0 0.0
2018-Apr-17 19:28N 53°35' E 008°33'0 0.0
2018-Apr-17 18:58N 53°35' E 008°33'0 0.0
2018-Apr-17 18:28N 53°35' E 008°33'0 0.0
2018-Apr-17 17:58N 53°35' E 008°33'0 0.0
2018-Apr-17 17:28N 53°35' E 008°33'0 0.0
2018-Apr-17 16:58N 53°35' E 008°33'0 0.0
2018-Apr-17 16:28N 53°35' E 008°33'0 0.0
2018-Apr-17 15:58N 53°35' E 008°33'0 0.0
2018-Apr-17 15:28N 53°35' E 008°33'0 0.0
2018-Apr-17 14:58N 53°35' E 008°33'0 0.0
2018-Apr-17 14:25N 53°35' E 008°33'0 0.0
2018-Apr-17 13:58N 53°35' E 008°33'0 0.0
2018-Apr-17 13:28N 53°35' E 008°33'0 0.0
2018-Apr-17 12:58N 53°35' E 008°33'0 0.0
2018-Apr-17 12:28N 53°35' E 008°33'0 0.0
2018-Apr-17 11:58N 53°35' E 008°33'0 0.0
2018-Apr-17 11:28N 53°35' E 008°33'0 0.0
2018-Apr-17 10:58N 53°35' E 008°33'0 0.0
2018-Apr-17 10:28N 53°35' E 008°33'0 0.0
2018-Apr-17 09:58N 53°35' E 008°33'0 0.0
2018-Apr-17 09:28N 53°35' E 008°33'0 0.0
2018-Apr-17 08:58N 53°35' E 008°33'0 0.0
2018-Apr-17 08:28N 53°35' E 008°33'0 0.0
2018-Apr-17 07:58N 53°35' E 008°33'0 0.0
2018-Apr-17 07:28N 53°35' E 008°33'0 0.0
2018-Apr-17 06:58N 53°35' E 008°33'0 0.0
2018-Apr-17 06:28N 53°35' E 008°33'0 0.0
2018-Apr-17 05:58N 53°35' E 008°33'0 0.0
2018-Apr-17 05:28N 53°35' E 008°33'0 0.0
2018-Apr-17 04:58N 53°35' E 008°33'0 0.0
2018-Apr-17 04:28N 53°35' E 008°33'0 0.0
2018-Apr-17 03:58N 53°35' E 008°33'0 0.0
2018-Apr-17 03:28N 53°35' E 008°33'0 0.0
2018-Apr-17 02:58N 53°35' E 008°33'0 0.0
2018-Apr-17 02:28N 53°35' E 008°33'0 0.0
2018-Apr-17 01:58N 53°35' E 008°33'0 0.0
2018-Apr-17 01:28N 53°35' E 008°33'0 0.0
2018-Apr-17 00:58N 53°35' E 008°33'0 0.0
2018-Apr-17 00:28N 53°35' E 008°33'0 0.0
2018-Apr-16 23:58N 53°35' E 008°33'0 0.0
2018-Apr-16 23:31N 53°35' E 008°33'0 0.0
2018-Apr-16 23:01N 53°35' E 008°33'0 0.0
2018-Apr-16 22:31N 53°35' E 008°33'0 0.0
2018-Apr-16 22:00N 53°35' E 008°33'0 0.0
2018-Apr-16 21:30N 53°35' E 008°33'0 0.0
2018-Apr-16 21:00N 53°35' E 008°33'0 0.0
2018-Apr-16 20:30N 53°35' E 008°33'0 0.0
2018-Apr-16 20:00N 53°35' E 008°33'0 0.0
2018-Apr-16 19:30N 53°35' E 008°33'0 0.0
2018-Apr-16 19:00N 53°35' E 008°33'0 0.0
2018-Apr-16 18:30N 53°35' E 008°33'0 0.0
2018-Apr-16 18:00N 53°35' E 008°33'0 0.0
2018-Apr-16 17:30N 53°35' E 008°33'0 0.0
2018-Apr-16 17:00N 53°35' E 008°33'0 0.0
2018-Apr-16 16:30N 53°35' E 008°33'0 0.0
2018-Apr-16 16:00N 53°35' E 008°33'0 0.3
2018-Apr-16 15:30N 53°34' E 008°33'0 0.5
2018-Apr-16 15:00N 53°34' E 008°33'0 0.5
2018-Apr-16 14:30N 53°34' E 008°33'3 5.5
2018-Apr-16 14:00N 53°36' E 008°30'713.1
2018-Apr-16 13:30N 53°41' E 008°22'510.9
2018-Apr-16 13:00N 53°44' E 008°14'510.6
2018-Apr-16 12:30N 53°48' E 008°08'612.1
2018-Apr-16 12:00N 53°51' E 007°60'610.6
2018-Apr-16 11:27N 53°53' E 007°50'2 4.5
2018-Apr-16 11:00N 53°54' E 007°49'0 0.3
2018-Apr-16 10:30N 53°55' E 007°49'0 0.0
2018-Apr-16 10:00N 53°55' E 007°49'0 0.1
2018-Apr-16 09:15N 53°55' E 007°49'0 0.2
2018-Apr-16 09:00N 53°55' E 007°49'0 0.0
2018-Apr-16 08:21N 53°55' E 007°49'0 0.0
2018-Apr-16 07:57N 53°55' E 007°49'0 0.0
2018-Apr-16 07:27N 53°55' E 007°49'0 0.0
2018-Apr-16 06:57N 53°55' E 007°49'0 0.1
2018-Apr-16 05:18N 53°55' E 007°49'0 0.0
2018-Apr-16 05:00N 53°55' E 007°49'0 0.0
2018-Apr-16 04:30N 53°55' E 007°49'0 0.0
2018-Apr-16 04:00N 53°55' E 007°49'0 0.0
2018-Apr-16 03:27N 53°55' E 007°49'0 0.0
2018-Apr-16 03:00N 53°55' E 007°49'0 0.0
2018-Apr-16 02:27N 53°55' E 007°49'0 0.0
2018-Apr-16 01:57N 53°55' E 007°49'0 0.0
2018-Apr-16 01:30N 53°55' E 007°49'0 0.0
2018-Apr-16 00:45N 53°55' E 007°49'0 0.1
2018-Apr-16 00:27N 53°55' E 007°49'0 0.0
2018-Apr-15 23:45N 53°55' E 007°49'0 0.1
2018-Apr-15 23:27N 53°55' E 007°49'0 0.0
2018-Apr-15 23:00N 53°55' E 007°49'0 0.2
2018-Apr-15 22:30N 53°55' E 007°49'0 0.1
2018-Apr-15 21:57N 53°55' E 007°49'0 0.0
2018-Apr-15 21:30N 53°55' E 007°49'0 0.0
2018-Apr-15 21:00N 53°55' E 007°49'0 0.0
2018-Apr-15 20:24N 53°55' E 007°49'0 0.0
2018-Apr-15 20:00N 53°55' E 007°49'0 0.1
2018-Apr-15 19:15N 53°55' E 007°49'0 0.1
2018-Apr-15 18:51N 53°55' E 007°49'0 0.2
2018-Apr-15 18:30N 53°55' E 007°49'0 0.1
2018-Apr-15 18:00N 53°55' E 007°49'4 7.0
2018-Apr-15 17:28N 53°54' E 007°42'8215.7
2018-Apr-15 12:15N 53°35' E 005°28'615.5
2018-Apr-15 11:51N 53°33' E 005°18'515.6
2018-Apr-15 11:30N 53°31' E 005°10'815.8
2018-Apr-15 11:00N 53°29' E 004°57'816.0
2018-Apr-15 10:30N 53°25' E 004°45'1215.2
2018-Apr-15 09:42N 53°15' E 004°34'416.2
2018-Apr-15 09:28N 53°11' E 004°32'816.2
2018-Apr-15 09:00N 53°04' E 004°26'816.2
2018-Apr-15 08:30N 52°57' E 004°20'816.0
2018-Apr-15 08:00N 52°50' E 004°14'816.1
2018-Apr-15 07:31N 52°44' E 004°05'1316.3
2018-Apr-15 06:44N 52°35' E 003°51'1016.4
2018-Apr-15 06:07N 52°27' E 003°40'216.4
2018-Apr-15 05:59N 52°26' E 003°38'4517.5
2018-Apr-15 03:24N 51°53' E 002°46'718.3
2018-Apr-15 03:00N 51°48' E 002°38'918.4
2018-Apr-15 02:30N 51°41' E 002°29'1018.8
2018-Apr-15 01:58N 51°33' E 002°18'918.8
2018-Apr-15 01:30N 51°27' E 002°09'918.1
2018-Apr-15 01:00N 51°18' E 002°06'917.1
2018-Apr-15 00:30N 51°11' E 001°57'1019.5
2018-Apr-15 00:00N 51°06' E 001°45'1020.5
2018-Apr-14 23:30N 50°58' E 001°33'1120.0
2018-Apr-14 22:57N 50°49' E 001°25'2418.4
2018-Apr-14 21:38N 50°30' E 001°01'218.4
2018-Apr-14 21:30N 50°29' E 000°57'1018.8
2018-Apr-14 20:59N 50°27' E 000°42'919.1
2018-Apr-14 20:29N 50°25' E 000°27'1019.5
2018-Apr-14 20:00N 50°23' E 000°13'1019.7
2018-Apr-14 19:30N 50°20' W 000°01'1019.6
2018-Apr-14 19:01N 50°17' W 000°16'1019.7
2018-Apr-14 18:30N 50°14' W 000°31'1019.6
2018-Apr-14 18:00N 50°12' W 000°46'1019.3
2018-Apr-14 17:29N 50°11' W 001°01'917.8
2018-Apr-14 17:00N 50°12' W 001°14'917.3
2018-Apr-14 16:31N 50°18' W 001°23'816.4
2018-Apr-14 16:00N 50°23' W 001°34'816.8
2018-Apr-14 15:30N 50°23' W 001°47'916.2
2018-Apr-14 14:57N 50°23' W 002°02'915.5
2018-Apr-14 14:23N 50°23' W 002°16'1215.1
2018-Apr-14 13:35N 50°23' W 002°34'115.1
2018-Apr-14 13:30N 50°23' W 002°36'815.4
2018-Apr-14 13:00N 50°23' W 002°48'815.9
2018-Apr-14 12:30N 50°23' W 003°01'816.4
2018-Apr-14 12:00N 50°25' W 003°14'815.5
2018-Apr-14 11:30N 50°25' W 003°25'3 5.8
2018-Apr-14 11:00N 50°23' W 003°25'714.7
2018-Apr-14 10:30N 50°16' W 003°29'815.4
2018-Apr-14 10:00N 50°10' W 003°37'1616.1
2018-Apr-14 09:00N 49°58' W 003°55'1216.5
2018-Apr-14 08:17N 49°50' W 004°07'716.8
2018-Apr-14 07:50N 49°44' W 004°15'817.4
2018-Apr-14 07:24N 49°38' W 004°23'4017.5
2018-Apr-14 05:07N 49°08' W 005°03'218.1
2018-Apr-14 04:59N 49°06' W 005°05'1018.2
2018-Apr-14 04:25N 48°59' W 005°16'818.6
2018-Apr-14 04:00N 48°53' W 005°24'918.7
2018-Apr-14 03:30N 48°46' W 005°33'  

Dump ship's entire track history